Time;durP1;ratioP1;P1;durP2;ratioP2;P2;SDS_P1;SDS_P2;PMS_P1;PMS_P2;Temp;Humidity;BMP_temperature;BMP_pressure;BME280_temperature;BME280_humidity;BME280_pressure;Samples;Min_cycle;Max_cycle;Signal;HPM_P1;HPM_P2
2021/12/01 00:00:42;;;;;;;35.72;24.05;;;;;;;9.04;96.87;99974.84;4975273;28;20035;-68
2021/12/01 00:03:08;;;;;;;35.63;20.45;;;;;;;9.08;96.60;99981.19;4974951;28;20065;-69
2021/12/01 00:05:34;;;;;;;39.97;22.95;;;;;;;8.98;97.30;99960.06;4974555;28;20454;-69
2021/12/01 00:08:00;;;;;;;41.58;21.73;;;;;;;9.10;96.34;99963.41;4975185;28;20035;-67
2021/12/01 00:10:27;;;;;;;37.90;21.25;;;;;;;9.02;97.14;99950.69;4975463;28;20379;-70
2021/12/01 00:12:53;;;;;;;37.15;22.20;;;;;;;9.10;96.60;99939.81;4975086;28;20054;-69
2021/12/01 00:15:19;;;;;;;29.50;20.05;;;;;;;9.08;96.43;99936.63;4974680;28;20093;-68
2021/12/01 00:17:46;;;;;;;37.45;20.05;;;;;;;9.07;96.83;99925.34;4974632;28;20042;-69
2021/12/01 00:20:14;;;;;;;34.17;20.50;;;;;;;9.13;96.61;99907.88;4974209;28;20049;-69
2021/12/01 00:22:41;;;;;;;33.28;19.65;;;;;;;9.09;96.32;99914.63;4974847;28;20035;-68
2021/12/01 00:25:08;;;;;;;32.08;16.85;;;;;;;9.13;96.04;99907.88;4975536;28;20023;-68
2021/12/01 00:27:34;;;;;;;25.83;15.73;;;;;;;9.17;96.01;99895.88;4974739;28;20046;-67
2021/12/01 00:29:59;;;;;;;24.95;14.55;;;;;;;9.17;95.76;99888.00;4974758;28;20480;-68
2021/12/01 00:32:25;;;;;;;27.65;13.15;;;;;;;9.20;96.02;99877.03;4974666;28;20057;-69
2021/12/01 00:34:51;;;;;;;22.80;14.57;;;;;;;9.15;96.21;99877.75;4974169;28;20038;-70
2021/12/01 00:37:17;;;;;;;18.90;14.15;;;;;;;9.15;97.01;99890.06;4975025;28;20087;-67
2021/12/01 00:39:43;;;;;;;20.65;11.57;;;;;;;9.11;97.37;99866.16;4974464;28;20066;-68
2021/12/01 00:42:08;;;;;;;24.60;11.88;;;;;;;9.10;97.46;99853.28;4974456;28;20070;-69
2021/12/01 00:44:35;;;;;;;20.42;12.00;;;;;;;9.05;98.18;99846.13;4974514;28;20057;-69
2021/12/01 00:49:26;;;;;;;14.85;9.38;;;;;;;9.05;97.97;99842.72;4974969;28;20493;-68
2021/12/01 00:51:52;;;;;;;14.45;9.23;;;;;;;9.04;98.50;99838.50;4974450;28;20601;-68
2021/12/01 00:54:17;;;;;;;17.50;9.20;;;;;;;9.06;98.22;99815.47;4974292;28;20050;-69
2021/12/01 00:56:44;;;;;;;11.40;8.75;;;;;;;9.02;98.63;99812.53;4974182;28;20129;-67
2021/12/01 00:59:09;;;;;;;13.32;10.07;;;;;;;9.09;98.20;99812.38;4974485;28;20045;-68
2021/12/01 01:01:35;;;;;;;15.35;10.57;;;;;;;9.08;98.17;99808.16;4974286;28;20511;-68
2021/12/01 01:04:00;;;;;;;12.40;9.98;;;;;;;9.17;97.69;99801.47;4974225;28;20043;-68
2021/12/01 01:06:27;;;;;;;11.13;9.07;;;;;;;9.17;97.86;99790.97;4973848;28;20043;-68
2021/12/01 01:08:52;;;;;;;16.50;9.40;;;;;;;9.22;97.28;99788.41;4974289;28;20043;-68
2021/12/01 01:16:49;;;;;;;11.20;9.07;;;;;;;9.25;97.20;99769.56;4974427;28;20388;-67
2021/12/01 01:19:15;;;;;;;11.60;9.05;;;;;;;9.26;97.31;99752.00;4974366;28;20483;-68
2021/12/01 01:21:47;;;;;;;12.48;9.13;;;;;;;9.30;96.89;99742.63;4973791;28;20034;-68
2021/12/01 01:24:13;;;;;;;10.43;9.02;;;;;;;9.33;96.52;99736.88;4973843;28;20062;-67
2021/12/01 01:26:39;;;;;;;11.35;8.75;;;;;;;9.34;96.74;99736.63;4974172;28;20037;-68
2021/12/01 01:29:06;;;;;;;10.07;8.13;;;;;;;9.27;97.47;99728.13;4974018;28;20432;-66
2021/12/01 01:31:32;;;;;;;9.75;7.05;;;;;;;9.31;97.05;99726.63;4970414;28;20050;-67
2021/12/01 01:33:57;;;;;;;11.02;7.93;;;;;;;9.29;97.78;99712.94;4958266;28;20809;-69
2021/12/01 01:36:24;;;;;;;9.98;8.07;;;;;;;9.32;97.43;99712.47;4957558;28;20037;-68
2021/12/01 01:38:49;;;;;;;13.80;8.23;;;;;;;9.30;97.72;99714.56;4958312;28;20113;-69
2021/12/01 01:41:16;;;;;;;11.50;7.22;;;;;;;9.25;98.14;99693.50;4958241;28;20035;-68
2021/12/01 01:43:43;;;;;;;10.05;7.57;;;;;;;9.33;98.00;99690.44;4958235;28;20035;-68
2021/12/01 01:46:09;;;;;;;9.60;7.28;;;;;;;9.37;97.12;99690.75;4958929;29;20142;-70
2021/12/01 01:48:45;;;;;;;11.32;8.73;;;;;;;9.39;97.93;99687.88;4967065;28;20126;-68
2021/12/01 01:51:11;;;;;;;10.98;7.65;;;;;;;9.37;97.61;99675.00;4977694;28;20031;-69
2021/12/01 01:53:36;;;;;;;11.57;9.18;;;;;;;9.45;97.36;99707.88;4977600;28;20444;-66
2021/12/01 01:56:05;;;;;;;10.35;8.23;;;;;;;9.46;97.45;99675.34;4977496;28;20529;-67
2021/12/01 01:58:30;;;;;;;13.20;8.60;;;;;;;9.36;98.09;99653.25;4978393;28;20447;-67
2021/12/01 02:01:14;;;;;;;12.02;7.88;;;;;;;9.43;97.89;99652.25;4976106;28;20062;-67
2021/12/01 02:03:45;;;;;;;9.25;7.55;;;;;;;9.38;98.44;99647.72;4977230;28;20042;-68
2021/12/01 02:06:13;;;;;;;8.75;6.43;;;;;;;9.41;97.90;99651.72;4976934;28;20050;-68
2021/12/01 02:08:40;;;;;;;10.35;6.63;;;;;;;9.44;98.31;99644.13;4977061;28;20043;-68
2021/12/01 02:11:12;;;;;;;11.55;6.97;;;;;;;9.43;98.03;99618.16;4977304;28;20117;-67
2021/12/01 02:13:41;;;;;;;10.15;6.13;;;;;;;9.47;97.91;99632.34;4977142;28;20046;-68
2021/12/01 02:16:07;;;;;;;11.43;6.25;;;;;;;9.43;97.85;99612.91;4977782;28;20069;-68
2021/12/01 02:18:32;;;;;;;6.40;5.38;;;;;;;9.40;98.67;99616.00;4977159;28;20078;-68
2021/12/01 02:20:58;;;;;;;5.78;4.22;;;;;;;9.44;98.14;99623.13;4977165;28;20066;-69
2021/12/01 02:23:23;;;;;;;5.95;4.35;;;;;;;9.44;97.87;99612.63;4976950;28;20034;-68
2021/12/01 02:25:49;;;;;;;5.35;4.82;;;;;;;9.44;97.83;99580.38;4976914;28;20033;-67
2021/12/01 02:28:14;;;;;;;5.72;3.88;;;;;;;9.45;97.86;99602.94;4976925;28;20041;-68
2021/12/01 02:30:40;;;;;;;6.22;4.30;;;;;;;9.41;97.84;99581.66;4976601;28;20042;-69
2021/12/01 02:33:05;;;;;;;4.75;2.80;;;;;;;9.45;97.18;99560.97;4976648;28;20069;-67
2021/12/01 02:35:30;;;;;;;3.70;2.35;;;;;;;9.52;96.01;99554.47;4976714;28;20050;-69
2021/12/01 02:37:56;;;;;;;3.60;2.13;;;;;;;9.50;95.40;99547.88;4977019;28;20042;-68
2021/12/01 02:40:22;;;;;;;5.18;2.00;;;;;;;9.51;95.56;99550.28;4976401;28;20025;-66
2021/12/01 02:42:47;;;;;;;1.48;1.23;;;;;;;9.49;95.75;99535.81;4976823;28;20104;-68
2021/12/01 02:45:13;;;;;;;8.75;2.00;;;;;;;9.43;96.55;99536.81;4976593;28;20043;-68
2021/12/01 02:47:38;;;;;;;2.75;1.60;;;;;;;9.39;96.81;99535.75;4976316;28;20043;-66
2021/12/01 02:50:15;;;;;;;5.10;1.90;;;;;;;9.33;97.52;99527.03;4976309;28;20524;-67
2021/12/01 02:52:41;;;;;;;1.48;1.30;;;;;;;9.34;97.61;99510.28;4974646;28;20043;-67
2021/12/01 02:55:10;;;;;;;4.28;2.30;;;;;;;9.33;97.91;99496.34;4976728;28;20069;-68
2021/12/01 02:57:54;;;;;;;3.40;1.98;;;;;;;9.28;97.90;99504.19;4976231;28;20555;-68
2021/12/01 03:00:22;;;;;;;2.60;2.17;;;;;;;9.31;97.98;99497.66;4976164;28;20466;-67
2021/12/01 03:02:48;;;;;;;3.90;2.70;;;;;;;9.29;97.75;99481.38;4976286;28;20050;-69
2021/12/01 03:05:17;;;;;;;4.30;2.50;;;;;;;9.29;96.80;99474.28;4963998;28;20054;-68
2021/12/01 03:07:44;;;;;;;3.30;2.42;;;;;;;9.29;96.55;99463.00;4956852;28;20038;-68
2021/12/01 03:10:11;;;;;;;4.50;1.95;;;;;;;9.27;96.14;99457.22;4957387;28;20027;-66
2021/12/01 03:12:39;;;;;;;6.60;3.28;;;;;;;9.24;95.98;99440.16;4956732;28;20079;-67
2021/12/01 03:15:06;;;;;;;9.60;3.17;;;;;;;9.21;96.46;99442.50;4956809;28;20431;-68
2021/12/01 03:17:32;;;;;;;3.13;2.60;;;;;;;9.25;96.28;99448.81;4956536;28;20039;-67
2021/12/01 03:19:58;;;;;;;6.65;2.53;;;;;;;9.22;96.73;99451.94;4956966;28;20098;-69
2021/12/01 03:22:25;;;;;;;6.50;2.42;;;;;;;9.20;96.87;99452.19;4957133;28;20118;-66
2021/12/01 03:24:51;;;;;;;2.63;2.25;;;;;;;9.25;96.05;99436.50;4974886;28;20073;-66
2021/12/01 03:27:17;;;;;;;3.05;2.03;;;;;;;9.25;95.37;99422.59;4975649;28;20031;-67
2021/12/01 03:29:49;;;;;;;3.05;2.03;;;;;;;9.28;94.97;99422.88;4975727;28;20129;-69
2021/12/01 03:32:15;;;;;;;3.08;2.22;;;;;;;9.29;94.43;99406.09;4975435;28;20049;-66
2021/12/01 03:34:42;;;;;;;3.60;2.10;;;;;;;9.28;94.80;99394.03;4975412;28;20038;-69
2021/12/01 03:37:08;;;;;;;2.10;1.88;;;;;;;9.30;94.36;99438.38;4976102;28;20026;-68
2021/12/01 03:39:34;;;;;;;1.92;1.75;;;;;;;9.17;95.20;99402.91;4975715;28;20070;-68
2021/12/01 03:41:59;;;;;;;4.72;2.20;;;;;;;9.13;95.69;99397.34;4975378;28;20046;-68
2021/12/01 03:44:25;;;;;;;2.97;2.15;;;;;;;9.13;96.23;99386.09;4975591;28;20039;-66
2021/12/01 03:46:51;;;;;;;3.95;2.70;;;;;;;9.08;96.38;99368.47;4975302;28;20034;-68
2021/12/01 03:49:17;;;;;;;6.32;2.25;;;;;;;9.08;96.21;99373.72;4975642;28;20050;-68
2021/12/01 03:51:43;;;;;;;2.25;1.88;;;;;;;9.03;96.61;99386.00;4975261;28;20042;-67
2021/12/01 03:54:08;;;;;;;4.75;2.30;;;;;;;9.02;96.51;99358.19;4972079;28;21310;-67
2021/12/01 03:56:34;;;;;;;6.85;2.15;;;;;;;8.94;97.27;99349.78;4955657;28;20118;-67
2021/12/01 03:59:00;;;;;;;4.68;2.58;;;;;;;8.92;97.16;99336.13;4956214;28;20031;-67
2021/12/01 04:01:26;;;;;;;4.05;2.50;;;;;;;8.95;96.98;99342.69;4956606;29;20035;-68
2021/12/01 04:03:51;;;;;;;1.95;1.85;;;;;;;8.99;96.56;99348.22;4956878;28;20043;-67
2021/12/01 04:06:17;;;;;;;2.80;2.53;;;;;;;8.92;96.66;99322.25;4975168;28;20107;-68
2021/12/01 04:08:42;;;;;;;2.50;2.30;;;;;;;8.90;97.26;99313.84;4974996;28;20477;-66
2021/12/01 04:11:08;;;;;;;4.60;2.58;;;;;;;8.83;97.01;99303.56;4975497;28;20034;-67
2021/12/01 04:13:33;;;;;;;3.55;2.53;;;;;;;8.83;96.97;99303.56;4975227;28;20038;-68
2021/12/01 04:15:59;;;;;;;2.30;2.10;;;;;;;8.90;95.67;99288.41;4975137;28;20042;-67
2021/12/01 04:18:24;;;;;;;5.03;2.60;;;;;;;8.91;96.00;99295.22;4974947;28;20097;-67
2021/12/01 04:20:50;;;;;;;3.58;2.13;;;;;;;8.91;95.96;99281.34;4974709;28;20064;-68
2021/12/01 04:23:15;;;;;;;2.83;2.58;;;;;;;8.88;95.99;99261.66;4974773;28;20030;-67
2021/12/01 04:25:41;;;;;;;2.72;2.53;;;;;;;8.85;95.91;99253.53;4974680;28;20042;-66
2021/12/01 04:28:06;;;;;;;3.25;2.95;;;;;;;8.82;96.03;99265.31;4975155;28;20114;-69
2021/12/01 04:30:32;;;;;;;3.22;2.92;;;;;;;8.75;96.32;99249.03;4974296;28;20414;-67
2021/12/01 04:32:57;;;;;;;3.42;3.08;;;;;;;8.74;96.47;99253.47;4974595;28;20074;-67
2021/12/01 04:35:25;;;;;;;3.72;3.40;;;;;;;8.69;96.58;99240.34;4974479;28;20038;-67
2021/12/01 04:37:52;;;;;;;3.17;2.88;;;;;;;8.72;96.78;99218.06;4974218;28;20038;-67
2021/12/01 04:40:17;;;;;;;4.50;3.20;;;;;;;8.67;96.58;99220.69;4975005;28;20050;-66
2021/12/01 04:42:43;;;;;;;4.05;3.60;;;;;;;8.66;96.91;99224.31;4974384;28;20039;-68
2021/12/01 04:45:14;;;;;;;3.55;3.25;;;;;;;8.60;97.29;99209.63;4974726;28;20043;-67
2021/12/01 04:47:57;;;;;;;3.60;3.28;;;;;;;8.58;97.31;99206.47;4974076;28;20537;-67
2021/12/01 04:50:27;;;;;;;3.75;3.45;;;;;;;8.59;96.36;99187.88;4974158;28;20416;-68
2021/12/01 04:52:55;;;;;;;4.30;3.90;;;;;;;8.53;96.61;99202.78;4974146;28;21491;-66
2021/12/01 04:55:22;;;;;;;4.15;3.78;;;;;;;8.54;96.51;99191.25;4974715;28;20026;-66
2021/12/01 04:57:48;;;;;;;4.97;4.32;;;;;;;8.53;96.97;99183.66;4973853;28;20054;-69
2021/12/01 05:00:20;;;;;;;4.68;4.20;;;;;;;8.45;97.36;99171.81;4974208;28;20038;-68
2021/12/01 05:02:45;;;;;;;4.68;3.10;;;;;;;8.47;96.90;99180.19;4970665;28;20035;-67
2021/12/01 05:05:11;;;;;;;4.35;3.95;;;;;;;8.47;96.86;99166.31;4973169;28;20042;-68
2021/12/01 05:07:36;;;;;;;4.07;3.20;;;;;;;8.45;96.35;99156.09;4972972;28;20353;-68
2021/12/01 05:10:04;;;;;;;4.75;4.30;;;;;;;8.41;96.83;99149.00;4973907;28;20114;-67
2021/12/01 05:12:29;;;;;;;5.63;3.08;;;;;;;8.42;96.62;99161.84;4973619;28;20517;-67
2021/12/01 05:14:55;;;;;;;3.17;2.88;;;;;;;8.44;96.22;99153.75;4973528;28;20065;-69
2021/12/01 05:17:21;;;;;;;3.60;3.30;;;;;;;8.37;96.64;99150.53;4973115;28;20042;-67
2021/12/01 05:19:47;;;;;;;6.05;3.15;;;;;;;8.33;96.71;99137.16;4973928;28;20484;-68
2021/12/01 05:22:13;;;;;;;3.30;3.00;;;;;;;8.27;97.24;99138.97;4974673;28;20054;-67
2021/12/01 05:24:38;;;;;;;3.67;2.85;;;;;;;8.32;96.71;99141.59;4974289;28;20039;-68
2021/12/01 05:27:04;;;;;;;2.47;2.28;;;;;;;8.25;96.66;99108.84;4973854;28;20053;-68
2021/12/01 05:29:30;;;;;;;3.80;3.05;;;;;;;8.21;97.64;99115.63;4974224;28;20035;-67
2021/12/01 05:31:56;;;;;;;2.08;1.90;;;;;;;8.18;96.94;99124.78;4973556;28;20041;-68
2021/12/01 05:34:22;;;;;;;3.40;2.10;;;;;;;8.18;97.85;99113.50;4973808;28;20033;-68
2021/12/01 05:36:47;;;;;;;3.20;2.40;;;;;;;8.17;97.36;99104.09;4973272;28;20427;-67
2021/12/01 05:39:13;;;;;;;2.00;1.63;;;;;;;8.14;97.04;99118.47;4974013;28;20094;-67
2021/12/01 05:41:38;;;;;;;2.85;1.73;;;;;;;8.14;96.97;99124.47;4973740;28;20475;-67
2021/12/01 05:44:04;;;;;;;2.33;1.77;;;;;;;8.08;96.67;99093.31;4973886;28;20045;-68
2021/12/01 05:46:29;;;;;;;2.13;1.80;;;;;;;8.13;96.59;99096.72;4974004;28;20110;-66
2021/12/01 05:48:55;;;;;;;2.40;2.20;;;;;;;8.09;96.98;99089.63;4973849;28;20046;-67
2021/12/01 05:51:21;;;;;;;2.75;2.17;;;;;;;8.13;96.47;99075.78;4973688;28;20038;-68
2021/12/01 05:53:48;;;;;;;1.95;1.83;;;;;;;8.09;96.36;99090.41;4974089;28;20035;-67
2021/12/01 05:56:14;;;;;;;1.70;1.60;;;;;;;8.03;96.85;99080.16;4973741;28;20468;-68
2021/12/01 05:58:40;;;;;;;1.60;1.50;;;;;;;8.11;96.29;99066.59;4973650;28;20074;-69
2021/12/01 06:01:06;;;;;;;1.90;1.77;;;;;;;8.06;96.58;99071.81;4974108;28;20118;-67
2021/12/01 06:03:31;;;;;;;2.13;1.90;;;;;;;7.97;97.39;99047.97;4973642;28;20049;-67
2021/12/01 06:05:57;;;;;;;2.10;1.90;;;;;;;7.95;97.28;99060.50;4954739;28;20046;-66
2021/12/01 06:08:22;;;;;;;1.63;1.52;;;;;;;7.98;97.10;99049.53;4954235;28;20527;-68
2021/12/01 06:10:48;;;;;;;2.08;1.88;;;;;;;7.96;97.73;99016.81;4954923;28;20472;-67
2021/12/01 06:13:16;;;;;;;2.05;1.90;;;;;;;7.97;97.28;99031.44;4970240;28;20372;-68
2021/12/01 06:15:42;;;;;;;2.15;1.95;;;;;;;7.93;96.68;99024.13;4973754;28;20034;-69
2021/12/01 06:18:07;;;;;;;2.47;2.15;;;;;;;7.97;97.00;99021.78;4974491;28;20531;-67
2021/12/01 06:20:33;;;;;;;2.25;1.98;;;;;;;7.94;97.32;99022.28;4967734;28;20051;-68
2021/12/01 06:22:58;;;;;;;4.60;2.13;;;;;;;7.96;96.58;99007.13;4967760;28;20403;-68
2021/12/01 06:25:24;;;;;;;2.35;2.15;;;;;;;7.93;96.75;98997.19;4967088;28;20030;-68
2021/12/01 06:27:49;;;;;;;3.60;2.45;;;;;;;7.93;97.12;98987.50;4960443;28;20433;-68
2021/12/01 06:30:15;;;;;;;2.30;1.95;;;;;;;7.94;96.83;98983.03;4967061;28;20035;-69
2021/12/01 06:32:40;;;;;;;2.38;1.90;;;;;;;8.01;96.41;98985.41;4970866;28;20039;-69
2021/12/01 06:35:06;;;;;;;3.35;2.47;;;;;;;7.93;97.27;98963.94;4974619;28;20376;-70
2021/12/01 06:37:31;;;;;;;2.10;1.98;;;;;;;7.93;97.29;98971.00;4976867;28;20110;-69
2021/12/01 06:39:57;;;;;;;1.70;1.60;;;;;;;7.90;97.22;98964.44;4969217;28;20039;-72
2021/12/01 06:42:23;;;;;;;2.35;2.15;;;;;;;7.93;96.53;98969.16;4955997;28;20050;-71
2021/12/01 06:44:48;;;;;;;2.30;2.10;;;;;;;7.96;97.41;98954.00;4956028;28;20129;-71
2021/12/01 06:47:15;;;;;;;2.47;2.15;;;;;;;7.87;97.39;98954.50;4968366;28;20039;-70
2021/12/01 06:49:45;;;;;;;2.67;2.47;;;;;;;7.91;97.17;98963.41;4968818;28;20071;-69
2021/12/01 06:52:11;;;;;;;3.13;2.03;;;;;;;7.93;96.78;98945.63;4963042;28;20019;-69
2021/12/01 06:54:36;;;;;;;2.53;2.13;;;;;;;7.98;96.90;98915.28;4968039;28;20173;-70
2021/12/01 06:57:02;;;;;;;2.70;2.50;;;;;;;7.95;96.18;98940.13;4964269;28;20181;-69
2021/12/01 06:59:27;;;;;;;2.63;2.42;;;;;;;7.95;96.63;98953.22;4966176;28;20071;-70
2021/12/01 07:01:53;;;;;;;2.20;2.00;;;;;;;8.03;95.63;98944.06;4966595;28;20054;-70
2021/12/01 07:04:18;;;;;;;1.77;1.67;;;;;;;8.06;95.76;98902.50;4969122;28;20027;-69
2021/12/01 07:06:43;;;;;;;2.25;2.05;;;;;;;8.01;96.10;98912.94;4971765;28;20038;-68
2021/12/01 07:09:11;;;;;;;1.90;1.80;;;;;;;7.96;96.23;98907.69;4965647;28;20524;-69
2021/12/01 07:11:36;;;;;;;2.30;2.10;;;;;;;7.97;96.35;98898.00;4965917;28;20026;-69
2021/12/01 07:14:02;;;;;;;1.88;1.77;;;;;;;7.96;96.17;98897.22;4968251;28;20046;-70
2021/12/01 07:16:29;;;;;;;1.63;1.52;;;;;;;7.99;95.85;98903.75;4976370;28;20041;-70
2021/12/01 07:18:55;;;;;;;2.05;1.85;;;;;;;7.98;96.60;98902.19;4971088;28;20094;-69
2021/12/01 07:21:20;;;;;;;2.70;2.03;;;;;;;7.98;96.52;98895.13;4963489;28;20035;-74
2021/12/01 07:23:45;;;;;;;2.22;2.03;;;;;;;8.05;96.02;98895.69;4957919;28;20479;-71
2021/12/01 07:26:11;;;;;;;4.53;2.38;;;;;;;8.10;95.48;98906.16;4959396;28;20041;-71
2021/12/01 07:28:36;;;;;;;1.85;1.75;;;;;;;8.08;95.71;98905.63;4972786;28;20046;-71
2021/12/01 07:31:02;;;;;;;3.25;2.05;;;;;;;8.10;95.45;98889.69;4960206;28;20428;-70
2021/12/01 07:33:27;;;;;;;2.40;2.20;;;;;;;8.17;95.36;98892.06;4961304;28;20062;-70
2021/12/01 07:35:53;;;;;;;3.22;2.88;;;;;;;8.09;95.99;98881.03;4971933;28;20039;-70
2021/12/01 07:38:18;;;;;;;2.35;2.15;;;;;;;8.13;95.49;98887.31;4970158;28;20062;-69
2021/12/01 07:40:43;;;;;;;3.38;2.65;;;;;;;8.13;95.68;98883.91;4966438;28;20018;-69
2021/12/01 07:43:09;;;;;;;3.63;3.33;;;;;;;8.15;95.63;98877.38;4956590;28;20094;-67
2021/12/01 07:45:35;;;;;;;3.67;3.25;;;;;;;8.14;95.64;98878.44;4956160;28;20039;-70
2021/12/01 07:48:00;;;;;;;3.05;2.72;;;;;;;8.22;95.58;98869.28;4963692;28;20066;-69
2021/12/01 07:50:26;;;;;;;5.35;3.70;;;;;;;8.28;94.88;98854.38;4970697;28;20043;-68
2021/12/01 07:52:51;;;;;;;3.15;2.85;;;;;;;8.31;94.81;98861.72;4955727;28;20114;-68
2021/12/01 07:55:18;;;;;;;3.53;3.22;;;;;;;8.30;94.95;98850.44;4955376;28;20059;-68
2021/12/01 07:57:43;;;;;;;3.92;3.40;;;;;;;8.32;94.75;98835.25;4964343;28;20043;-68
2021/12/01 08:00:09;;;;;;;3.10;2.80;;;;;;;8.35;94.42;98831.34;4970368;28;20100;-68
2021/12/01 08:02:35;;;;;;;4.30;3.22;;;;;;;8.38;94.61;98843.91;4966990;28;20054;-67
2021/12/01 08:05:05;;;;;;;2.78;2.58;;;;;;;8.48;93.59;98828.22;4967954;28;20097;-67
2021/12/01 08:07:34;;;;;;;3.80;2.85;;;;;;;8.42;94.02;98829.28;4964340;28;20035;-67
2021/12/01 08:10:00;;;;;;;3.53;3.17;;;;;;;8.43;94.07;98851.81;4973789;28;20034;-68
2021/12/01 08:12:25;;;;;;;6.80;3.15;;;;;;;8.44;93.46;98816.72;4973088;28;20046;-69
2021/12/01 08:14:50;;;;;;;3.85;3.45;;;;;;;8.44;94.27;98819.31;4971076;28;20039;-68
2021/12/01 08:17:16;;;;;;;5.18;4.05;;;;;;;8.48;94.29;98804.66;4973259;28;20043;-68
2021/12/01 08:19:41;;;;;;;3.78;3.45;;;;;;;8.53;93.30;98798.63;4972888;28;20042;-68
2021/12/01 08:22:09;;;;;;;4.00;3.40;;;;;;;8.53;94.24;98790.78;4972075;28;20395;-68
2021/12/01 08:24:35;;;;;;;5.10;3.13;;;;;;;8.61;92.85;98792.09;4972798;28;20086;-69
2021/12/01 08:27:01;;;;;;;6.80;3.22;;;;;;;8.60;93.44;98788.69;4972665;28;20209;-68
2021/12/01 08:29:27;;;;;;;6.88;3.33;;;;;;;8.61;92.87;98792.09;4968051;28;20061;-67
2021/12/01 08:31:52;;;;;;;4.72;4.03;;;;;;;8.57;93.43;98804.16;4970038;28;20870;-68
2021/12/01 08:34:17;;;;;;;4.75;3.40;;;;;;;8.51;93.77;98783.19;4973046;28;20035;-68
2021/12/01 08:36:45;;;;;;;4.72;3.10;;;;;;;8.51;94.15;98788.41;4973528;28;20066;-67
2021/12/01 08:39:11;;;;;;;3.72;2.78;;;;;;;8.50;94.50;98823.53;4972709;28;20402;-68
2021/12/01 08:41:36;;;;;;;9.98;2.97;;;;;;;8.38;95.75;98828.19;4972549;28;20129;-69
2021/12/01 08:44:02;;;;;;;7.43;3.05;;;;;;;8.26;97.00;98838.13;4967773;28;20042;-67
2021/12/01 08:46:27;;;;;;;11.15;3.00;;;;;;;8.26;97.00;98840.75;4972900;28;20341;-68
2021/12/01 08:48:53;;;;;;;12.25;2.65;;;;;;;8.23;95.87;98838.66;4972622;28;20074;-68
2021/12/01 08:51:18;;;;;;;5.28;2.88;;;;;;;8.31;94.11;98851.25;4969953;28;20042;-69
2021/12/01 08:53:44;;;;;;;13.68;2.00;;;;;;;8.23;94.68;98843.91;4962598;28;20054;-70
2021/12/01 08:56:11;;;;;;;5.82;1.95;;;;;;;8.20;93.14;98850.44;4966993;28;20447;-67
2021/12/01 08:58:37;;;;;;;4.72;1.45;;;;;;;8.20;92.66;98826.88;4969441;28;20039;-70
2021/12/01 09:01:03;;;;;;;7.18;1.42;;;;;;;8.22;91.82;98822.19;4967625;28;20039;-68
2021/12/01 09:03:29;;;;;;;6.07;1.60;;;;;;;8.11;91.62;98863.22;4971974;28;20057;-68
2021/12/01 09:05:55;;;;;;;5.43;1.50;;;;;;;8.12;91.36;98843.09;4972003;28;20870;-67
2021/12/01 09:08:22;;;;;;;7.93;1.67;;;;;;;8.11;91.07;98836.28;4964541;28;20042;-69
2021/12/01 09:10:49;;;;;;;11.65;3.20;;;;;;;8.13;91.11;98855.91;4967237;28;20031;-67
2021/12/01 09:13:15;;;;;;;6.55;1.92;;;;;;;8.14;91.11;98865.34;4972333;28;20046;-68
2021/12/01 09:15:42;;;;;;;13.57;2.70;;;;;;;8.14;91.45;98852.25;4971724;28;20038;-68
2021/12/01 09:18:08;;;;;;;18.75;2.38;;;;;;;8.12;91.34;98843.09;4961450;28;20087;-68
2021/12/01 09:20:33;;;;;;;9.55;1.90;;;;;;;8.13;90.60;98857.75;4962213;28;20039;-69
2021/12/01 09:23:00;;;;;;;10.07;1.70;;;;;;;8.15;90.61;98838.13;4962336;28;20039;-67
2021/12/01 09:25:26;;;;;;;5.93;1.35;;;;;;;8.10;90.64;98834.72;4964837;28;20077;-68
2021/12/01 09:27:52;;;;;;;13.00;1.77;;;;;;;8.12;90.38;98843.88;4966579;28;20495;-68
2021/12/01 09:30:18;;;;;;;5.88;1.65;;;;;;;8.23;89.22;98834.22;4975253;28;20122;-67
2021/12/01 09:32:44;;;;;;;10.48;1.70;;;;;;;8.20;90.11;98844.41;4960701;28;20035;-68
2021/12/01 09:35:12;;;;;;;6.97;1.50;;;;;;;8.27;89.21;98832.63;4969174;28;20035;-67
2021/12/01 09:37:37;;;;;;;5.80;1.77;;;;;;;8.30;88.91;98845.19;4961004;28;20523;-69
2021/12/01 09:40:05;;;;;;;2.83;1.05;;;;;;;8.43;88.81;98846.56;4963562;28;20034;-69
2021/12/01 09:42:31;;;;;;;5.18;1.90;;;;;;;8.50;89.03;98847.09;4962639;28;20039;-67
2021/12/01 09:44:57;;;;;;;9.70;2.55;;;;;;;8.59;88.36;98851.81;4961236;28;20047;-69
2021/12/01 09:47:24;;;;;;;5.68;1.50;;;;;;;8.72;88.14;98838.19;4963990;28;20115;-69
2021/12/01 09:49:50;;;;;;;7.47;1.90;;;;;;;8.65;88.18;98866.50;4967183;28;20031;-68
2021/12/01 09:52:17;;;;;;;6.63;1.17;;;;;;;8.60;87.82;98848.94;4971372;28;20089;-67
2021/12/01 09:54:42;;;;;;;14.27;1.63;;;;;;;8.57;87.43;98859.16;4972973;28;20043;-67
2021/12/01 09:57:12;;;;;;;10.05;1.55;;;;;;;8.49;88.62;98847.34;4976176;28;20038;-68
2021/12/01 09:59:37;;;;;;;8.77;1.70;;;;;;;8.30;90.03;98847.03;4975775;28;20050;-69
2021/12/01 10:02:03;;;;;;;8.98;1.15;;;;;;;8.17;91.28;98871.88;4976037;28;20508;-67
2021/12/01 10:04:29;;;;;;;11.02;1.65;;;;;;;7.94;92.29;98878.38;4976254;28;20472;-67
2021/12/01 10:07:26;;;;;;;8.32;1.65;;;;;;;7.73;94.40;98873.06;4973982;28;20035;-69
2021/12/01 10:09:57;;;;;;;5.15;1.30;;;;;;;7.64;95.01;98869.38;4976474;28;20034;-68
2021/12/01 10:12:23;;;;;;;;;;;;;;;7.67;94.58;98858.41;4976786;28;20511;-67
2021/12/01 10:14:51;;;;;;;12.15;2.08;;;;;;;7.68;94.19;98859.19;4975041;28;19953;-69
2021/12/01 10:17:33;;;;;;;5.28;1.55;;;;;;;7.71;93.25;98859.44;4975572;28;20034;-68
2021/12/01 10:20:18;;;;;;;7.85;1.80;;;;;;;7.77;92.56;98855.03;4974421;28;20042;-67
2021/12/01 10:23:14;;;;;;;10.43;1.73;;;;;;;7.75;90.16;98849.25;4975617;28;20027;-67
2021/12/01 10:25:41;;;;;;;7.80;1.65;;;;;;;7.68;91.30;98864.41;4977199;28;20039;-67
2021/12/01 10:28:07;;;;;;;12.00;2.38;;;;;;;7.79;90.07;98855.56;4975530;28;20061;-69
2021/12/01 10:30:39;;;;;;;8.77;1.65;;;;;;;7.91;89.79;98865.81;4975843;28;20062;-67
2021/12/01 10:33:10;;;;;;;11.75;1.95;;;;;;;7.97;89.59;98883.09;4974404;28;20043;-67
2021/12/01 10:35:37;;;;;;;10.23;1.67;;;;;;;8.16;88.13;98870.34;4971407;28;20074;-68
2021/12/01 10:38:04;;;;;;;5.40;1.23;;;;;;;8.15;89.11;98856.44;4975446;28;20038;-68
2021/12/01 10:40:29;;;;;;;7.03;1.33;;;;;;;8.09;88.88;98847.00;4970686;28;20041;-68
2021/12/01 10:43:02;;;;;;;14.13;1.38;;;;;;;8.06;88.03;98837.06;4968375;28;20487;-70
2021/12/01 10:45:48;;;;;;;16.80;3.50;;;;;;;8.03;87.53;98870.81;4975311;28;20045;-68
2021/12/01 10:48:23;;;;;;;7.80;2.20;;;;;;;8.05;88.66;98845.97;4973443;28;20038;-69
2021/12/01 10:50:49;;;;;;;7.63;2.28;;;;;;;8.09;88.75;98848.84;4975303;28;20046;-68
2021/12/01 10:53:21;;;;;;;11.38;1.60;;;;;;;8.25;87.44;98868.00;4968583;28;20094;-70
2021/12/01 10:55:49;;;;;;;7.80;1.60;;;;;;;8.18;87.91;98841.25;4968590;28;20046;-68
2021/12/01 10:58:15;;;;;;;14.82;2.17;;;;;;;8.26;87.72;98848.59;4969418;28;20061;-67
2021/12/01 11:00:49;;;;;;;7.18;1.63;;;;;;;8.26;87.87;98843.38;4967043;28;20039;-69
2021/12/01 11:03:21;;;;;;;8.35;1.65;;;;;;;8.31;87.68;98835.53;4965936;28;20034;-69
2021/12/01 11:05:55;;;;;;;3.88;0.82;;;;;;;8.33;87.22;98849.16;4968209;28;20042;-70
2021/12/01 11:08:21;;;;;;;8.90;1.65;;;;;;;8.34;86.49;98843.63;4967160;28;20098;-69
2021/12/01 11:11:08;;;;;;;14.50;2.75;;;;;;;8.34;87.42;98843.63;4970133;28;20472;-68
2021/12/01 11:13:37;;;;;;;19.15;2.75;;;;;;;8.31;87.65;98832.91;4968819;28;20024;-69
2021/12/01 11:16:06;;;;;;;7.93;3.17;;;;;;;8.26;86.40;98844.16;4971064;28;20035;-69
2021/12/01 11:18:34;;;;;;;5.55;1.60;;;;;;;8.24;87.20;98848.88;4971268;28;20496;-68
2021/12/01 11:21:05;;;;;;;6.80;2.28;;;;;;;8.18;88.05;98843.88;4966921;28;20118;-70
2021/12/01 11:23:36;;;;;;;21.15;2.28;;;;;;;8.19;88.61;98833.16;4964377;28;20067;-69
2021/12/01 11:26:21;;;;;;;7.93;1.40;;;;;;;8.15;88.03;98838.13;4963860;28;20027;-69
2021/12/01 11:28:52;;;;;;;8.55;1.70;;;;;;;8.17;87.22;98830.00;4969154;28;20070;-70
2021/12/01 11:31:17;;;;;;;;;;;;;;;8.14;87.23;98835.78;4966840;28;20081;-68
2021/12/01 11:33:46;;;;;;;8.68;1.52;;;;;;;8.12;88.51;98843.09;4963191;28;19930;-69
2021/12/01 11:36:20;;;;;;;12.75;2.65;;;;;;;8.15;88.02;98843.34;4973623;28;20039;-68
2021/12/01 11:38:51;;;;;;;14.68;2.10;;;;;;;8.15;87.76;98848.59;4971239;28;20043;-69
2021/12/01 11:41:17;;;;;;;7.82;2.42;;;;;;;8.13;87.09;98842.81;4966379;28;20039;-68
2021/12/01 11:43:43;;;;;;;11.57;2.35;;;;;;;8.13;88.39;98829.72;4973357;28;20566;-69
2021/12/01 11:46:10;;;;;;;12.95;2.78;;;;;;;8.07;88.61;98828.16;4974440;28;20035;-69